Time;durP1;ratioP1;P1;durP2;ratioP2;P2;SDS_P1;SDS_P2;PMS_P1;PMS_P2;Temp;Humidity;BMP_temperature;BMP_pressure;BME280_temperature;BME280_humidity;BME280_pressure;Samples;Min_cycle;Max_cycle;Signal;HPM_P1;HPM_P2
2023/02/19 00:01:52;;;;;;;8.43;7.63;;;;;;;;;;5020676;28;20281;-86
2023/02/19 00:04:22;;;;;;;8.93;8.13;;;;;;;;;;4989462;28;20229;-86
2023/02/19 00:06:48;;;;;;;9.73;8.83;;;;;;;;;;5021567;28;20220;-85
2023/02/19 00:09:14;;;;;;;9.20;8.30;;;;;;;;;;5001535;28;20761;-86
2023/02/19 00:11:40;;;;;;;8.13;7.43;;;;;;;;;;4990465;28;20287;-87
2023/02/19 00:14:08;;;;;;;8.87;7.97;;;;;;;;;;4990988;28;20216;-84
2023/02/19 00:16:38;;;;;;;8.33;7.53;;;;;;;;;;5006050;28;20216;-85
2023/02/19 00:19:05;;;;;;;7.40;6.70;;;;;;;;;;4992576;28;20232;-86
2023/02/19 00:21:31;;;;;;;7.70;7.10;;;;;;;;;;5003915;28;20926;-87
2023/02/19 00:24:04;;;;;;;6.77;6.13;;;;;;;;;;5005078;28;20223;-86
2023/02/19 00:26:29;;;;;;;6.50;5.80;;;;;;;;;;4988691;28;20252;-86
2023/02/19 00:29:01;;;;;;;7.23;6.60;;;;;;;;;;5005648;28;20579;-85
2023/02/19 00:31:32;;;;;;;6.60;6.00;;;;;;;;;;5005110;28;20778;-85
2023/02/19 00:33:59;;;;;;;7.37;6.67;;;;;;;;;;5003800;28;20598;-85
2023/02/19 00:36:25;;;;;;;6.77;6.17;;;;;;;;;;5018280;28;20224;-86
2023/02/19 00:38:56;;;;;;;7.13;6.53;;;;;;;;;;5004640;28;20239;-86
2023/02/19 00:41:24;;;;;;;6.97;6.37;;;;;;;;;;4996793;28;20228;-84
2023/02/19 00:44:02;;;;;;;7.40;6.70;;;;;;;;;;4992509;28;20236;-85
2023/02/19 00:46:32;;;;;;;7.47;6.77;;;;;;;;;;5016224;28;20286;-85
2023/02/19 00:48:57;;;;;;;7.77;7.07;;;;;;;;;;5012666;28;20222;-86
2023/02/19 00:51:25;;;;;;;8.90;7.67;;;;;;;;;;5011291;28;20216;-85
2023/02/19 00:53:53;;;;;;;7.40;6.70;;;;;;;;;;5028063;28;20250;-84
2023/02/19 00:56:23;;;;;;;8.00;7.20;;;;;;;;;;5009891;28;20706;-84
2023/02/19 00:58:48;;;;;;;7.60;6.87;;;;;;;;;;5000617;28;20215;-84
2023/02/19 01:01:16;;;;;;;8.13;7.33;;;;;;;;;;5003624;28;20703;-85
2023/02/19 01:03:45;;;;;;;7.27;6.67;;;;;;;;;;5012071;28;20224;-84
2023/02/19 01:06:14;;;;;;;7.57;6.73;;;;;;;;;;5024255;28;20254;-85
2023/02/19 01:08:39;;;;;;;7.17;6.47;;;;;;;;;;5008862;28;20239;-85
2023/02/19 01:11:05;;;;;;;7.10;6.40;;;;;;;;;;5012550;28;20219;-85
2023/02/19 01:13:31;;;;;;;6.13;5.63;;;;;;;;;;5008409;28;20236;-85
2023/02/19 01:16:05;;;;;;;5.83;5.23;;;;;;;;;;5027860;28;20219;-85
2023/02/19 01:18:30;;;;;;;5.47;4.87;;;;;;;;;;5024754;28;20681;-84
2023/02/19 01:20:56;;;;;;;5.90;4.77;;;;;;;;;;5041251;28;20228;-85
2023/02/19 01:23:21;;;;;;;5.43;4.93;;;;;;;;;;5012456;28;20215;-84
2023/02/19 01:25:47;;;;;;;4.60;4.20;;;;;;;;;;5017122;28;20223;-85
2023/02/19 01:28:13;;;;;;;5.10;4.60;;;;;;;;;;4999278;28;20212;-85
2023/02/19 01:30:41;;;;;;;5.20;4.70;;;;;;;;;;5009635;28;20223;-85
2023/02/19 01:33:11;;;;;;;4.80;4.40;;;;;;;;;;5006804;28;20224;-84
2023/02/19 01:35:39;;;;;;;4.43;4.07;;;;;;;;;;5022638;28;20235;-85
2023/02/19 01:38:07;;;;;;;4.47;4.07;;;;;;;;;;5009330;28;20219;-85
2023/02/19 01:40:33;;;;;;;4.60;4.20;;;;;;;;;;5010273;28;20326;-84
2023/02/19 01:42:58;;;;;;;4.57;4.17;;;;;;;;;;5004130;28;20236;-86
2023/02/19 01:45:28;;;;;;;5.30;4.80;;;;;;;;;;4991714;28;20225;-84
2023/02/19 01:48:24;;;;;;;5.87;4.80;;;;;;;;;;5024111;28;20672;-83
2023/02/19 01:50:53;;;;;;;4.97;4.47;;;;;;;;;;5003089;28;20228;-84
2023/02/19 01:53:21;;;;;;;4.87;4.10;;;;;;;;;;5015756;28;20239;-81
2023/02/19 01:55:47;;;;;;;4.20;3.80;;;;;;;;;;5016765;28;20242;-84
2023/02/19 01:58:13;;;;;;;3.30;3.00;;;;;;;;;;4992291;28;20276;-84
2023/02/19 02:00:39;;;;;;;4.17;2.83;;;;;;;;;;5007862;28;20224;-86
2023/02/19 02:03:04;;;;;;;6.43;3.40;;;;;;;;;;5006956;28;20706;-84
2023/02/19 02:05:52;;;;;;;5.27;3.77;;;;;;;;;;4993214;28;20236;-84
2023/02/19 02:11:02;;;;;;;7.40;4.47;;;;;;;;;;5007710;28;20275;-86
2023/02/19 02:13:34;;;;;;;7.17;4.80;;;;;;;;;;4991388;28;20216;-86
2023/02/19 02:16:21;;;;;;;6.50;4.90;;;;;;;;;;5000794;28;20243;-83
2023/02/19 02:19:04;;;;;;;7.53;5.47;;;;;;;;;;5021508;28;20297;-85
2023/02/19 02:21:43;;;;;;;5.93;5.30;;;;;;;;;;5019001;28;20217;-85
2023/02/19 02:24:33;;;;;;;7.83;5.40;;;;;;;;;;5036221;28;20477;-84
2023/02/19 02:27:30;;;;;;;6.13;5.50;;;;;;;;;;5005056;28;20236;-84
2023/02/19 02:30:14;;;;;;;4.53;4.00;;;;;;;;;;5027353;28;20251;-82
2023/02/19 02:33:20;;;;;;;10.30;4.47;;;;;;;;;;5005136;28;20275;-84
2023/02/19 02:35:57;;;;;;;4.17;3.30;;;;;;;;;;4997799;28;20223;-84
2023/02/19 02:38:25;;;;;;;8.30;4.20;;;;;;;;;;5019758;28;20231;-84
2023/02/19 02:40:54;;;;;;;8.00;4.30;;;;;;;;;;4974295;28;20220;-83
2023/02/19 02:43:20;;;;;;;6.43;4.03;;;;;;;;;;5011972;28;20220;-83
2023/02/19 02:45:48;;;;;;;5.70;3.90;;;;;;;;;;4988750;28;20410;-85
2023/02/19 02:48:30;;;;;;;7.10;3.90;;;;;;;;;;4997168;28;20226;-84
2023/02/19 02:51:37;;;;;;;4.23;3.83;;;;;;;;;;5036634;28;20311;-83
2023/02/19 02:57:19;;;;;;;7.77;3.73;;;;;;;;;;5019447;28;20671;-85
2023/02/19 02:59:51;;;;;;;4.03;3.20;;;;;;;;;;4995081;28;20397;-85
2023/02/19 03:02:22;;;;;;;3.83;3.50;;;;;;;;;;4978362;28;20228;-85
2023/02/19 03:07:50;;;;;;;5.93;3.13;;;;;;;;;;5015923;28;20224;-85
2023/02/19 03:10:22;;;;;;;3.20;2.90;;;;;;;;;;5002801;28;20224;-85
2023/02/19 03:21:23;;;;;;;4.93;2.80;;;;;;;;;;4944528;29;20411;-85
2023/02/19 03:26:32;;;;;;;9.73;2.90;;;;;;;;;;5002037;28;20225;-86
2023/02/19 03:32:05;;;;;;;3.37;2.80;;;;;;;;;;4987722;28;20230;-86
2023/02/19 03:34:38;;;;;;;5.10;2.80;;;;;;;;;;4998913;28;20243;-83
2023/02/19 03:37:24;;;;;;;5.77;2.50;;;;;;;;;;5018874;28;20223;-84
2023/02/19 03:39:51;;;;;;;3.40;3.10;;;;;;;;;;5006124;28;20319;-85
2023/02/19 03:42:23;;;;;;;3.60;2.93;;;;;;;;;;5007276;28;20220;-83
2023/02/19 03:44:57;;;;;;;4.57;2.90;;;;;;;;;;5003663;28;20254;-85
2023/02/19 03:47:27;;;;;;;2.80;2.60;;;;;;;;;;5006076;28;20279;-85
2023/02/19 03:49:59;;;;;;;3.47;3.07;;;;;;;;;;5017871;28;20213;-84
2023/02/19 03:52:42;;;;;;;3.80;2.80;;;;;;;;;;5003454;28;20219;-85
2023/02/19 03:55:21;;;;;;;4.33;2.67;;;;;;;;;;5003815;28;20275;-85
2023/02/19 03:58:01;;;;;;;3.80;2.77;;;;;;;;;;5021001;28;20219;-84
2023/02/19 04:00:33;;;;;;;4.57;3.10;;;;;;;;;;4999946;28;20706;-84
2023/02/19 04:03:04;;;;;;;3.23;2.93;;;;;;;;;;5012830;28;20323;-85
2023/02/19 04:05:31;;;;;;;4.10;2.73;;;;;;;;;;4961304;28;20253;-85
2023/02/19 04:07:59;;;;;;;4.77;2.77;;;;;;;;;;4980565;28;20271;-86
2023/02/19 04:10:30;;;;;;;3.70;2.93;;;;;;;;;;5020898;28;20240;-85
2023/02/19 04:13:03;;;;;;;3.43;2.50;;;;;;;;;;5000409;28;20219;-86
2023/02/19 04:15:30;;;;;;;3.03;2.70;;;;;;;;;;5006995;28;20228;-85
2023/02/19 04:18:03;;;;;;;4.40;3.10;;;;;;;;;;5000604;28;20217;-84
2023/02/19 04:20:33;;;;;;;7.00;3.37;;;;;;;;;;5009340;28;20223;-84
2023/02/19 04:22:58;;;;;;;4.50;3.20;;;;;;;;;;5003386;28;20216;-84
2023/02/19 04:25:24;;;;;;;4.23;2.97;;;;;;;;;;5002712;28;20242;-85
2023/02/19 04:27:52;;;;;;;4.63;3.27;;;;;;;;;;5020551;28;20208;-86
2023/02/19 04:30:22;;;;;;;2.90;2.60;;;;;;;;;;5016306;28;20224;-85
2023/02/19 04:32:48;;;;;;;3.40;2.60;;;;;;;;;;5021375;28;20572;-85
2023/02/19 04:35:16;;;;;;;4.00;2.67;;;;;;;;;;4986262;28;20230;-85
2023/02/19 04:37:47;;;;;;;4.13;3.00;;;;;;;;;;5016191;28;20224;-86
2023/02/19 04:40:14;;;;;;;3.23;2.57;;;;;;;;;;5002111;28;20223;-86
2023/02/19 04:42:40;;;;;;;3.70;2.90;;;;;;;;;;4984686;28;20579;-84
2023/02/19 04:45:06;;;;;;;3.10;2.63;;;;;;;;;;5003476;28;20292;-85
2023/02/19 04:47:31;;;;;;;3.80;2.77;;;;;;;;;;4989508;28;20755;-86
2023/02/19 04:50:01;;;;;;;5.57;3.07;;;;;;;;;;5013148;28;20219;-87
2023/02/19 04:52:27;;;;;;;6.40;3.27;;;;;;;;;;4999014;28;20216;-87
2023/02/19 04:54:52;;;;;;;5.60;2.83;;;;;;;;;;4994089;28;20231;-85
2023/02/19 04:57:18;;;;;;;4.50;2.97;;;;;;;;;;5004608;28;20230;-87
2023/02/19 04:59:45;;;;;;;4.03;3.00;;;;;;;;;;4989788;28;20212;-86
2023/02/19 05:02:10;;;;;;;4.87;3.30;;;;;;;;;;5020116;28;20227;-85
2023/02/19 05:04:38;;;;;;;4.53;3.03;;;;;;;;;;5007572;28;20750;-87
2023/02/19 05:07:04;;;;;;;5.17;2.83;;;;;;;;;;4997342;28;20213;-85
2023/02/19 05:09:29;;;;;;;4.27;3.23;;;;;;;;;;5009424;28;20276;-87
2023/02/19 05:11:57;;;;;;;5.30;3.50;;;;;;;;;;5014815;28;20212;-85
2023/02/19 05:14:24;;;;;;;4.27;2.70;;;;;;;;;;5002688;28;20231;-86
2023/02/19 05:16:50;;;;;;;3.03;2.70;;;;;;;;;;5003070;28;20242;-87
2023/02/19 05:19:15;;;;;;;3.00;2.73;;;;;;;;;;5002944;28;20636;-85
2023/02/19 05:21:41;;;;;;;3.47;2.50;;;;;;;;;;4987933;28;20213;-86
2023/02/19 05:24:07;;;;;;;4.43;2.30;;;;;;;;;;4983993;28;20239;-87
2023/02/19 05:26:34;;;;;;;3.47;2.63;;;;;;;;;;5008859;28;20240;-87
2023/02/19 05:29:00;;;;;;;2.90;2.53;;;;;;;;;;4968133;28;20235;-86
2023/02/19 05:31:27;;;;;;;3.47;2.40;;;;;;;;;;4984425;28;20228;-86
2023/02/19 05:33:58;;;;;;;2.70;2.33;;;;;;;;;;5015298;28;20408;-85
2023/02/19 05:36:26;;;;;;;4.30;3.20;;;;;;;;;;4987014;28;20230;-87
2023/02/19 05:38:54;;;;;;;3.10;2.73;;;;;;;;;;4995292;28;20223;-87
2023/02/19 05:41:29;;;;;;;3.87;2.87;;;;;;;;;;5007884;28;20969;-87
2023/02/19 05:44:02;;;;;;;4.27;3.00;;;;;;;;;;4995704;28;20228;-86
2023/02/19 05:46:28;;;;;;;5.83;3.17;;;;;;;;;;4981929;28;20312;-86
2023/02/19 05:48:56;;;;;;;5.10;3.07;;;;;;;;;;4995641;28;20216;-87
2023/02/19 05:51:23;;;;;;;5.33;3.10;;;;;;;;;;4991434;28;20234;-85
2023/02/19 05:53:49;;;;;;;3.60;3.30;;;;;;;;;;5009128;28;20197;-86
2023/02/19 05:56:29;;;;;;;4.00;3.60;;;;;;;;;;5005651;28;20228;-87
2023/02/19 05:58:55;;;;;;;4.47;2.93;;;;;;;;;;5021902;28;20234;-85
2023/02/19 06:01:27;;;;;;;5.20;3.30;;;;;;;;;;5006554;28;20278;-85
2023/02/19 06:03:52;;;;;;;4.27;3.13;;;;;;;;;;4989272;28;20247;-87
2023/02/19 06:06:18;;;;;;;5.83;3.30;;;;;;;;;;5007232;28;20228;-86
2023/02/19 06:08:52;;;;;;;5.13;3.10;;;;;;;;;;5005778;28;20224;-87
2023/02/19 06:11:20;;;;;;;6.30;3.30;;;;;;;;;;5006652;28;20854;-85
2023/02/19 06:13:50;;;;;;;5.77;3.57;;;;;;;;;;4970604;28;20208;-86
2023/02/19 06:16:18;;;;;;;5.93;3.40;;;;;;;;;;4970093;28;20236;-87
2023/02/19 06:18:46;;;;;;;5.90;3.47;;;;;;;;;;4985408;28;20220;-85
2023/02/19 06:21:15;;;;;;;4.47;3.60;;;;;;;;;;4987607;28;20224;-86
2023/02/19 06:23:43;;;;;;;6.40;5.80;;;;;;;;;;4977490;28;20651;-85
2023/02/19 06:26:12;;;;;;;7.13;5.03;;;;;;;;;;4996456;28;20253;-85
2023/02/19 06:28:37;;;;;;;5.10;4.13;;;;;;;;;;5007830;28;20216;-86
2023/02/19 06:31:06;;;;;;;6.40;4.23;;;;;;;;;;4987542;28;20693;-86
2023/02/19 06:33:34;;;;;;;5.13;4.10;;;;;;;;;;4986793;28;20228;-87
2023/02/19 06:36:00;;;;;;;6.30;5.37;;;;;;;;;;4984621;28;20225;-86
2023/02/19 06:38:26;;;;;;;8.53;5.53;;;;;;;;;;4984616;28;20231;-86
2023/02/19 06:40:56;;;;;;;5.20;4.70;;;;;;;;;;4984354;28;20217;-87
2023/02/19 06:43:22;;;;;;;6.57;5.37;;;;;;;;;;4997877;28;20654;-86
2023/02/19 06:45:48;;;;;;;6.87;5.47;;;;;;;;;;4984539;28;20225;-85
2023/02/19 06:48:15;;;;;;;6.07;5.07;;;;;;;;;;4992660;28;20220;-85
2023/02/19 06:50:43;;;;;;;8.00;5.37;;;;;;;;;;5000224;28;20208;-85
2023/02/19 06:53:11;;;;;;;7.13;5.60;;;;;;;;;;5009007;28;20228;-85
2023/02/19 06:55:41;;;;;;;9.93;5.97;;;;;;;;;;5004663;28;20244;-85
2023/02/19 06:58:07;;;;;;;7.73;6.23;;;;;;;;;;5016319;28;20236;-86
2023/02/19 07:00:33;;;;;;;7.83;6.33;;;;;;;;;;5000841;28;20244;-85
2023/02/19 07:03:03;;;;;;;8.63;6.57;;;;;;;;;;5000448;28;20251;-85
2023/02/19 07:05:28;;;;;;;7.60;6.80;;;;;;;;;;5015626;28;20235;-86
2023/02/19 07:07:56;;;;;;;8.57;7.57;;;;;;;;;;5000815;28;20221;-85
2023/02/19 07:10:22;;;;;;;7.17;6.47;;;;;;;;;;4997377;28;20233;-87
2023/02/19 07:12:56;;;;;;;7.73;6.90;;;;;;;;;;5016718;28;20224;-86
2023/02/19 07:15:24;;;;;;;7.03;6.40;;;;;;;;;;5002343;28;20686;-86
2023/02/19 07:17:49;;;;;;;8.07;6.97;;;;;;;;;;5017706;28;20232;-85
2023/02/19 07:20:22;;;;;;;8.40;7.50;;;;;;;;;;5018072;28;20580;-85
2023/02/19 07:22:47;;;;;;;8.07;7.27;;;;;;;;;;5017343;28;20217;-86
2023/02/19 07:25:13;;;;;;;9.90;7.60;;;;;;;;;;5015279;28;20228;-85
2023/02/19 07:27:39;;;;;;;8.63;6.97;;;;;;;;;;5004106;28;20226;-87
2023/02/19 07:30:26;;;;;;;7.83;7.07;;;;;;;;;;5003636;28;20216;-87
2023/02/19 07:32:54;;;;;;;7.47;6.40;;;;;;;;;;5007877;28;20311;-86
2023/02/19 07:35:22;;;;;;;8.00;6.30;;;;;;;;;;4993892;28;20263;-87
2023/02/19 07:37:50;;;;;;;8.50;6.87;;;;;;;;;;4990642;28;20738;-86
2023/02/19 07:40:18;;;;;;;6.97;6.27;;;;;;;;;;4987519;28;20252;-85
2023/02/19 07:42:43;;;;;;;8.67;6.70;;;;;;;;;;4986243;28;20220;-86
2023/02/19 07:45:16;;;;;;;7.60;6.80;;;;;;;;;;4993108;28;20286;-84
2023/02/19 07:47:44;;;;;;;9.13;7.10;;;;;;;;;;5024316;28;20216;-87
2023/02/19 07:50:10;;;;;;;7.50;6.63;;;;;;;;;;5022243;28;20733;-84
2023/02/19 07:52:35;;;;;;;8.80;7.03;;;;;;;;;;4984730;28;20224;-85
2023/02/19 07:55:03;;;;;;;8.77;7.40;;;;;;;;;;5017581;28;20304;-85
2023/02/19 07:57:30;;;;;;;10.77;7.03;;;;;;;;;;5003667;28;20298;-86
2023/02/19 07:59:55;;;;;;;9.97;7.40;;;;;;;;;;5000125;28;20234;-85
2023/02/19 08:05:06;;;;;;;8.60;7.20;;;;;;;;;;5006724;28;20663;-86
2023/02/19 08:07:34;;;;;;;10.07;7.43;;;;;;;;;;5001892;28;20223;-87
2023/02/19 08:15:41;;;;;;;8.43;7.60;;;;;;;;;;5014217;28;20322;-86
2023/02/19 08:18:10;;;;;;;8.97;8.03;;;;;;;;;;5016480;28;20227;-86
2023/02/19 08:20:35;;;;;;;11.30;8.63;;;;;;;;;;5000359;28;20236;-87
2023/02/19 08:23:03;;;;;;;9.53;7.57;;;;;;;;;;5014465;28;20220;-88
2023/02/19 08:25:31;;;;;;;8.43;7.47;;;;;;;;;;4999923;28;20224;-88
2023/02/19 08:27:59;;;;;;;17.40;8.57;;;;;;;;;;5005051;28;20239;-89
2023/02/19 08:30:27;;;;;;;10.60;8.03;;;;;;;;;;5003507;28;20250;-88
2023/02/19 08:32:57;;;;;;;12.23;8.77;;;;;;;;;;5003732;28;20273;-88
2023/02/19 08:35:27;;;;;;;8.73;7.63;;;;;;;;;;5003255;28;20228;-86
2023/02/19 08:37:56;;;;;;;12.70;9.77;;;;;;;;;;4986927;28;20228;-87
2023/02/19 08:40:22;;;;;;;11.93;10.03;;;;;;;;;;5002871;28;20233;-88
2023/02/19 08:42:48;;;;;;;12.50;10.67;;;;;;;;;;4987439;28;20216;-86
2023/02/19 08:45:16;;;;;;;13.73;10.83;;;;;;;;;;5017970;28;20724;-86
2023/02/19 08:47:41;;;;;;;12.60;10.27;;;;;;;;;;5004194;28;20231;-87
2023/02/19 08:50:10;;;;;;;13.30;9.50;;;;;;;;;;5004402;28;20251;-86
2023/02/19 08:52:37;;;;;;;10.73;9.70;;;;;;;;;;5038222;28;20228;-87
2023/02/19 08:55:05;;;;;;;10.67;9.47;;;;;;;;;;4999521;28;20220;-85
2023/02/19 08:57:31;;;;;;;10.53;9.30;;;;;;;;;;5021212;28;20255;-87
2023/02/19 08:59:56;;;;;;;10.37;9.13;;;;;;;;;;5004959;28;20697;-85
2023/02/19 09:02:25;;;;;;;15.57;9.83;;;;;;;;;;5004387;28;21176;-88
2023/02/19 09:04:50;;;;;;;14.90;9.27;;;;;;;;;;4991270;28;20262;-86
2023/02/19 09:07:19;;;;;;;9.10;8.20;;;;;;;;;;5012801;28;20693;-87
2023/02/19 09:09:46;;;;;;;9.67;8.63;;;;;;;;;;5004439;28;20291;-86
2023/02/19 09:12:12;;;;;;;12.00;8.37;;;;;;;;;;5008437;28;20224;-87
2023/02/19 09:14:45;;;;;;;11.37;7.67;;;;;;;;;;5009293;28;20217;-86
2023/02/19 09:17:11;;;;;;;9.23;7.70;;;;;;;;;;5003930;28;20236;-86
2023/02/19 09:19:38;;;;;;;8.10;7.20;;;;;;;;;;5005786;28;20220;-85
2023/02/19 09:22:05;;;;;;;9.40;7.53;;;;;;;;;;5003621;28;20219;-84
2023/02/19 09:24:35;;;;;;;10.33;7.93;;;;;;;;;;5023648;28;20223;-83
2023/02/19 09:27:02;;;;;;;9.17;7.23;;;;;;;;;;5015241;28;20231;-85
2023/02/19 09:29:28;;;;;;;8.87;6.67;;;;;;;;;;5040212;28;20204;-85
2023/02/19 09:31:58;;;;;;;8.07;6.73;;;;;;;;;;5006369;28;20205;-85
2023/02/19 09:34:24;;;;;;;6.83;6.00;;;;;;;;;;5025544;28;20224;-85
2023/02/19 09:36:50;;;;;;;8.57;5.60;;;;;;;;;;5024337;28;20467;-86
2023/02/19 09:39:20;;;;;;;8.50;5.03;;;;;;;;;;5008920;28;20280;-85
2023/02/19 09:41:52;;;;;;;5.57;4.57;;;;;;;;;;5021451;28;21088;-86
2023/02/19 09:44:26;;;;;;;4.60;4.20;;;;;;;;;;5019347;28;20253;-85
2023/02/19 09:46:52;;;;;;;5.13;4.20;;;;;;;;;;5019700;28;20268;-87
2023/02/19 09:49:20;;;;;;;7.17;4.20;;;;;;;;;;5016596;28;20217;-88
2023/02/19 09:51:48;;;;;;;6.47;3.40;;;;;;;;;;5023302;28;20283;-84
2023/02/19 09:54:20;;;;;;;3.80;3.30;;;;;;;;;;5002670;28;20221;-85
2023/02/19 09:56:46;;;;;;;4.93;3.13;;;;;;;;;;5030659;28;20231;-86
2023/02/19 09:59:42;;;;;;;6.00;3.50;;;;;;;;;;5008109;28;20212;-87
2023/02/19 10:02:21;;;;;;;6.70;3.20;;;;;;;;;;5013139;28;20311;-85
2023/02/19 10:04:47;;;;;;;5.53;2.50;;;;;;;;;;5004599;28;20248;-86
2023/02/19 10:07:19;;;;;;;3.43;2.37;;;;;;;;;;5007114;28;20207;-86
2023/02/19 10:09:47;;;;;;;5.23;2.10;;;;;;;;;;5004487;28;20275;-86
2023/02/19 10:12:14;;;;;;;5.30;2.10;;;;;;;;;;5000522;28;20303;-87
2023/02/19 10:14:43;;;;;;;4.73;2.60;;;;;;;;;;4989149;28;20257;-87
2023/02/19 10:17:20;;;;;;;4.27;1.67;;;;;;;;;;5007177;28;20307;-86
2023/02/19 10:19:46;;;;;;;2.20;1.97;;;;;;;;;;4987616;28;20227;-87
2023/02/19 10:22:11;;;;;;;4.80;2.13;;;;;;;;;;5012530;28;20204;-86
2023/02/19 10:24:39;;;;;;;5.43;2.03;;;;;;;;;;4997836;28;20240;-86
2023/02/19 10:27:13;;;;;;;3.40;1.60;;;;;;;;;;5022334;28;20235;-87
2023/02/19 10:29:39;;;;;;;2.53;1.53;;;;;;;;;;5004245;28;20224;-88
2023/02/19 10:32:23;;;;;;;3.20;1.30;;;;;;;;;;5007212;28;20212;-88
2023/02/19 10:35:12;;;;;;;2.87;1.13;;;;;;;;;;5018161;28;20223;-89
2023/02/19 10:37:47;;;;;;;2.80;1.30;;;;;;;;;;5018728;28;20225;-87
2023/02/19 10:40:18;;;;;;;2.67;1.70;;;;;;;;;;5005562;28;20668;-87
2023/02/19 10:42:47;;;;;;;2.83;1.50;;;;;;;;;;5003778;28;20235;-87
2023/02/19 10:45:23;;;;;;;8.07;1.60;;;;;;;;;;4985510;28;20299;-89
2023/02/19 10:47:48;;;;;;;2.97;1.37;;;;;;;;;;5018255;28;20230;-87
2023/02/19 10:50:31;;;;;;;2.97;1.10;;;;;;;;;;4999707;28;20225;-89
2023/02/19 10:52:59;;;;;;;3.00;1.40;;;;;;;;;;4973024;28;20220;-86
2023/02/19 10:55:35;;;;;;;4.30;1.10;;;;;;;;;;5003692;28;20230;-88
2023/02/19 10:58:38;;;;;;;5.90;1.33;;;;;;;;;;5001821;28;20707;-87
2023/02/19 11:01:14;;;;;;;3.53;1.20;;;;;;;;;;4922757;29;20235;-87
2023/02/19 11:03:40;;;;;;;2.93;0.93;;;;;;;;;;5014486;28;20223;-87
2023/02/19 11:06:10;;;;;;;3.77;1.40;;;;;;;;;;5015929;28;20258;-85
2023/02/19 11:08:46;;;;;;;3.70;1.10;;;;;;;;;;4988459;28;20755;-87
2023/02/19 11:11:36;;;;;;;2.17;1.20;;;;;;;;;;5010266;28;20227;-89
2023/02/19 11:14:15;;;;;;;1.67;1.10;;;;;;;;;;5001833;28;20219;-87
2023/02/19 11:16:46;;;;;;;3.17;1.30;;;;;;;;;;4983492;28;20240;-82
2023/02/19 11:19:26;;;;;;;1.83;1.13;;;;;;;;;;5010792;28;20224;-86
2023/02/19 11:21:57;;;;;;;2.43;1.50;;;;;;;;;;5022026;28;20223;-86
2023/02/19 11:24:36;;;;;;;1.93;0.90;;;;;;;;;;5017765;28;20244;-87
2023/02/19 11:27:03;;;;;;;2.77;1.10;;;;;;;;;;4990712;28;20296;-87
2023/02/19 11:29:33;;;;;;;2.03;0.83;;;;;;;;;;4988820;28;20239;-85
2023/02/19 11:32:21;;;;;;;4.13;1.10;;;;;;;;;;4987292;28;20223;-85
2023/02/19 11:34:49;;;;;;;4.23;1.20;;;;;;;;;;5029480;28;20288;-87
2023/02/19 11:37:19;;;;;;;1.77;1.00;;;;;;;;;;4962788;28;20242;-89
2023/02/19 11:39:47;;;;;;;2.87;1.30;;;;;;;;;;4986853;28;20291;-88
2023/02/19 11:42:21;;;;;;;4.23;1.80;;;;;;;;;;4994216;28;20231;-86
2023/02/19 11:45:06;;;;;;;3.33;1.00;;;;;;;;;;5020603;28;20242;-87
2023/02/19 11:47:37;;;;;;;2.67;1.17;;;;;;;;;;5016611;28;20277;-84
2023/02/19 11:50:24;;;;;;;2.27;1.10;;;;;;;;;;5036128;28;20704;-86
2023/02/19 11:52:53;;;;;;;2.97;1.37;;;;;;;;;;5002038;28;20224;-85
2023/02/19 11:55:51;;;;;;;2.43;0.83;;;;;;;;;;5003006;28;20988;-86
2023/02/19 11:59:02;;;;;;;;;;;;;;;;;;;;;
2023/02/19 12:02:38;;;;;;;3.60;3.13;;;;;;;;;;5003038;28;20284;-85
2023/02/19 12:05:07;;;;;;;5.27;3.80;;;;;;;;;;4988541;28;20301;-86
2023/02/19 12:07:54;;;;;;;3.57;2.10;;;;;;;;;;5007426;28;20351;-88
2023/02/19 12:10:47;;;;;;;4.83;2.70;;;;;;;;;;4985609;28;20324;-86
2023/02/19 12:13:36;;;;;;;1.70;1.13;;;;;;;;;;5016448;28;20224;-88
2023/02/19 12:16:11;;;;;;;4.50;2.13;;;;;;;;;;5010745;28;20242;-86
2023/02/19 12:19:12;;;;;;;4.27;1.70;;;;;;;;;;5007943;28;20234;-85
2023/02/19 12:22:10;;;;;;;3.47;1.57;;;;;;;;;;5031778;28;20231;-88
2023/02/19 12:24:54;;;;;;;2.07;1.00;;;;;;;;;;5004480;28;20274;-88
2023/02/19 12:27:54;;;;;;;1.67;0.70;;;;;;;;;;5015189;28;20258;-85
2023/02/19 12:30:47;;;;;;;2.27;1.20;;;;;;;;;;5018286;28;20224;-86
2023/02/19 12:33:22;;;;;;;5.03;0.80;;;;;;;;;;4997619;28;20224;-88
2023/02/19 12:36:16;;;;;;;2.77;1.10;;;;;;;;;;5019403;28;20596;-87
2023/02/19 12:39:00;;;;;;;5.90;1.00;;;;;;;;;;5003613;28;20223;-87
2023/02/19 12:41:46;;;;;;;5.13;0.73;;;;;;;;;;5015779;28;20760;-88
2023/02/19 12:44:27;;;;;;;2.30;1.00;;;;;;;;;;4989767;28;20291;-87
2023/02/19 12:46:58;;;;;;;5.20;1.03;;;;;;;;;;5007206;28;20320;-88
2023/02/19 12:49:26;;;;;;;4.20;2.53;;;;;;;;;;4990630;28;20219;-88
2023/02/19 12:52:22;;;;;;;4.17;1.30;;;;;;;;;;5022141;28;20510;-87
2023/02/19 12:54:49;;;;;;;2.13;1.00;;;;;;;;;;5015606;28;20221;-87
2023/02/19 12:57:23;;;;;;;2.10;0.73;;;;;;;;;;5018883;28;20684;-87
2023/02/19 13:00:03;;;;;;;4.53;1.60;;;;;;;;;;4993360;28;20696;-87
2023/02/19 13:02:49;;;;;;;3.03;1.30;;;;;;;;;;5019353;28;20315;-86
2023/02/19 13:05:35;;;;;;;2.50;0.90;;;;;;;;;;4998002;28;20675;-88
2023/02/19 13:08:13;;;;;;;1.73;0.53;;;;;;;;;;4994885;28;20305;-88
2023/02/19 13:10:47;;;;;;;1.57;1.00;;;;;;;;;;5001278;28;20623;-87
2023/02/19 13:13:19;;;;;;;3.23;1.07;;;;;;;;;;5000701;28;20688;-87
2023/02/19 13:15:47;;;;;;;1.67;0.93;;;;;;;;;;5007043;28;20238;-87
2023/02/19 13:18:21;;;;;;;3.90;1.07;;;;;;;;;;5017203;28;20685;-81
2023/02/19 13:20:47;;;;;;;3.23;0.73;;;;;;;;;;5003959;28;20232;-79
2023/02/19 13:26:37;;;;;;;4.00;0.70;;;;;;;;;;5004287;28;20267;-81
2023/02/19 13:29:37;;;;;;;1.50;0.53;;;;;;;;;;5011531;28;20224;-81
2023/02/19 13:32:20;;;;;;;5.87;1.10;;;;;;;;;;5036014;28;20220;-82
2023/02/19 13:35:22;;;;;;;2.33;1.17;;;;;;;;;;5036105;28;20315;-81
2023/02/19 13:37:50;;;;;;;1.93;0.97;;;;;;;;;;5016623;28;20273;-81
2023/02/19 13:40:29;;;;;;;4.13;1.07;;;;;;;;;;4999284;28;20304;-81
2023/02/19 13:42:56;;;;;;;4.83;1.20;;;;;;;;;;4988696;28;20713;-79
2023/02/19 13:45:36;;;;;;;1.10;0.87;;;;;;;;;;5003235;28;20717;-80
2023/02/19 13:48:27;;;;;;;1.47;0.90;;;;;;;;;;5015999;28;20219;-82
2023/02/19 13:51:20;;;;;;;3.03;0.97;;;;;;;;;;4991821;28;20270;-81
2023/02/19 13:53:47;;;;;;;2.10;0.77;;;;;;;;;;4988474;28;20224;-79
2023/02/19 13:56:32;;;;;;;2.43;1.07;;;;;;;;;;5017353;28;20232;-82
2023/02/19 13:59:23;;;;;;;4.70;1.23;;;;;;;;;;5015556;28;20260;-82
2023/02/19 14:01:52;;;;;;;1.33;0.87;;;;;;;;;;5044564;28;20281;-81
2023/02/19 14:04:24;;;;;;;2.63;0.83;;;;;;;;;;5043919;28;20220;-82
2023/02/19 14:07:02;;;;;;;1.60;0.80;;;;;;;;;;5012731;28;20242;-82
2023/02/19 14:09:35;;;;;;;2.77;0.80;;;;;;;;;;5027780;28;20219;-82
2023/02/19 14:12:20;;;;;;;1.67;0.87;;;;;;;;;;5027474;28;20710;-82
2023/02/19 14:14:50;;;;;;;1.30;0.77;;;;;;;;;;4996007;28;20571;-80
2023/02/19 14:17:45;;;;;;;0.97;0.53;;;;;;;;;;5010733;28;20263;-82
2023/02/19 14:20:14;;;;;;;0.67;0.47;;;;;;;;;;5005205;28;20260;-82
2023/02/19 14:22:57;;;;;;;2.00;0.70;;;;;;;;;;5036979;28;20228;-81
2023/02/19 14:25:32;;;;;;;2.10;1.00;;;;;;;;;;5025400;28;20232;-82
2023/02/19 14:28:00;;;;;;;3.50;0.70;;;;;;;;;;5011875;28;20227;-82
2023/02/19 14:30:26;;;;;;;1.17;0.60;;;;;;;;;;5035398;28;20247;-81
2023/02/19 14:32:51;;;;;;;1.63;0.63;;;;;;;;;;4986803;28;20238;-81
2023/02/19 14:35:18;;;;;;;1.90;0.70;;;;;;;;;;5016895;28;21011;-83
2023/02/19 14:37:44;;;;;;;0.80;0.70;;;;;;;;;;5006650;28;20247;-81
2023/02/19 14:40:16;;;;;;;0.60;0.53;;;;;;;;;;5010088;28;20220;-80
2023/02/19 14:42:49;;;;;;;0.87;0.70;;;;;;;;;;5004718;28;20216;-82
2023/02/19 14:45:15;;;;;;;2.57;0.70;;;;;;;;;;4997480;28;20228;-83
2023/02/19 14:47:40;;;;;;;3.23;0.70;;;;;;;;;;5029327;28;20622;-81
2023/02/19 14:50:19;;;;;;;1.10;0.50;;;;;;;;;;4992002;28;20208;-80
2023/02/19 14:52:49;;;;;;;1.70;0.70;;;;;;;;;;5014807;28;20215;-81
2023/02/19 14:55:33;;;;;;;2.10;0.80;;;;;;;;;;5011134;28;20235;-82
2023/02/19 14:58:04;;;;;;;2.30;0.90;;;;;;;;;;5037874;28;20236;-81
2023/02/19 15:00:38;;;;;;;2.27;0.80;;;;;;;;;;4989130;28;20275;-81
2023/02/19 15:03:04;;;;;;;2.73;0.90;;;;;;;;;;5007326;28;20279;-81
2023/02/19 15:05:35;;;;;;;2.70;0.90;;;;;;;;;;5002794;28;20228;-81
2023/02/19 15:08:03;;;;;;;1.60;0.70;;;;;;;;;;5008352;28;20218;-80
2023/02/19 15:10:33;;;;;;;3.30;1.30;;;;;;;;;;5003207;28;20294;-82
2023/02/19 15:13:06;;;;;;;3.20;1.60;;;;;;;;;;5005975;28;20232;-79
2023/02/19 15:15:36;;;;;;;3.20;1.33;;;;;;;;;;5006500;28;20234;-80
2023/02/19 15:18:04;;;;;;;3.67;1.00;;;;;;;;;;5025057;28;20304;-81
2023/02/19 15:20:36;;;;;;;2.93;1.30;;;;;;;;;;4990246;28;20216;-81
2023/02/19 15:23:04;;;;;;;1.90;1.10;;;;;;;;;;5006695;28;20220;-82
2023/02/19 15:25:37;;;;;;;2.77;1.20;;;;;;;;;;4986695;28;20634;-81
2023/02/19 15:28:33;;;;;;;3.47;1.20;;;;;;;;;;4997648;28;20346;-82
2023/02/19 15:30:58;;;;;;;2.27;1.20;;;;;;;;;;4986985;28;20225;-82
2023/02/19 15:33:27;;;;;;;2.03;1.17;;;;;;;;;;5004586;28;20247;-82
2023/02/19 15:35:58;;;;;;;2.70;1.20;;;;;;;;;;5000631;28;20242;-83
2023/02/19 15:38:24;;;;;;;5.37;1.43;;;;;;;;;;5002947;28;20688;-80
2023/02/19 15:40:49;;;;;;;2.30;1.50;;;;;;;;;;5023796;28;20224;-84
2023/02/19 15:43:23;;;;;;;5.77;1.87;;;;;;;;;;5007092;28;20216;-81
2023/02/19 15:45:49;;;;;;;5.00;1.77;;;;;;;;;;5003496;28;20311;-84
2023/02/19 15:48:19;;;;;;;2.67;1.70;;;;;;;;;;5007394;28;20593;-81